sensor_id;sensor_type;location;lat;lon;timestamp;temperature;humidity
67862;DHT22;54665;51.462;6.698;2022-12-20T00:01:21;9.37;87.60
67862;DHT22;54665;51.462;6.698;2022-12-20T00:03:51;9.34;87.64
67862;DHT22;54665;51.462;6.698;2022-12-20T00:06:18;9.44;87.22
67862;DHT22;54665;51.462;6.698;2022-12-20T00:08:44;9.39;87.48
67862;DHT22;54665;51.462;6.698;2022-12-20T00:11:10;9.37;87.58
67862;DHT22;54665;51.462;6.698;2022-12-20T00:13:35;9.39;87.62
67862;DHT22;54665;51.462;6.698;2022-12-20T00:16:08;9.42;87.26
67862;DHT22;54665;51.462;6.698;2022-12-20T00:18:35;9.42;87.33
67862;DHT22;54665;51.462;6.698;2022-12-20T00:21:02;9.44;87.18
67862;DHT22;54665;51.462;6.698;2022-12-20T00:23:27;9.46;87.01
67862;DHT22;54665;51.462;6.698;2022-12-20T00:26:00;9.42;86.91
67862;DHT22;54665;51.462;6.698;2022-12-20T00:28:26;9.41;87.11
67862;DHT22;54665;51.462;6.698;2022-12-20T00:30:55;9.46;86.49
67862;DHT22;54665;51.462;6.698;2022-12-20T00:33:21;9.46;86.74
67862;DHT22;54665;51.462;6.698;2022-12-20T00:35:46;9.38;87.13
67862;DHT22;54665;51.462;6.698;2022-12-20T00:38:11;9.31;87.54
67862;DHT22;54665;51.462;6.698;2022-12-20T00:40:37;9.28;87.77
67862;DHT22;54665;51.462;6.698;2022-12-20T00:43:02;9.31;87.72
67862;DHT22;54665;51.462;6.698;2022-12-20T00:45:29;9.31;87.66
67862;DHT22;54665;51.462;6.698;2022-12-20T00:47:54;9.28;87.73
67862;DHT22;54665;51.462;6.698;2022-12-20T00:50:20;9.25;87.83
67862;DHT22;54665;51.462;6.698;2022-12-20T00:52:45;9.27;87.88
67862;DHT22;54665;51.462;6.698;2022-12-20T00:55:11;9.25;87.86
67862;DHT22;54665;51.462;6.698;2022-12-20T00:57:36;9.27;87.54
67862;DHT22;54665;51.462;6.698;2022-12-20T01:00:02;9.28;87.40
67862;DHT22;54665;51.462;6.698;2022-12-20T01:02:28;9.21;87.29
67862;DHT22;54665;51.462;6.698;2022-12-20T01:04:53;9.18;87.58
67862;DHT22;54665;51.462;6.698;2022-12-20T01:07:18;9.14;87.55
67862;DHT22;54665;51.462;6.698;2022-12-20T01:09:44;9.25;87.49
67862;DHT22;54665;51.462;6.698;2022-12-20T01:12:09;9.28;87.43
67862;DHT22;54665;51.462;6.698;2022-12-20T01:14:35;9.27;87.37
67862;DHT22;54665;51.462;6.698;2022-12-20T01:17:01;9.28;87.37
67862;DHT22;54665;51.462;6.698;2022-12-20T01:19:26;9.37;87.00
67862;DHT22;54665;51.462;6.698;2022-12-20T01:21:52;9.44;86.87
67862;DHT22;54665;51.462;6.698;2022-12-20T01:24:18;9.48;86.68
67862;DHT22;54665;51.462;6.698;2022-12-20T01:26:45;9.58;86.09
67862;DHT22;54665;51.462;6.698;2022-12-20T01:29:11;9.62;86.14
67862;DHT22;54665;51.462;6.698;2022-12-20T01:31:38;9.59;86.06
67862;DHT22;54665;51.462;6.698;2022-12-20T01:34:04;9.66;85.99
67862;DHT22;54665;51.462;6.698;2022-12-20T01:36:31;9.72;85.72
67862;DHT22;54665;51.462;6.698;2022-12-20T01:38:59;9.72;85.55
67862;DHT22;54665;51.462;6.698;2022-12-20T01:41:26;9.69;85.62
67862;DHT22;54665;51.462;6.698;2022-12-20T01:43:53;9.65;85.58
67862;DHT22;54665;51.462;6.698;2022-12-20T01:46:21;9.58;85.64
67862;DHT22;54665;51.462;6.698;2022-12-20T01:49:01;9.49;86.06
67862;DHT22;54665;51.462;6.698;2022-12-20T01:51:32;9.46;86.28
67862;DHT22;54665;51.462;6.698;2022-12-20T01:54:13;9.41;86.41
67862;DHT22;54665;51.462;6.698;2022-12-20T01:56:45;9.31;86.96
67862;DHT22;54665;51.462;6.698;2022-12-20T01:59:12;9.24;87.13
67862;DHT22;54665;51.462;6.698;2022-12-20T02:01:39;9.27;87.32
67862;DHT22;54665;51.462;6.698;2022-12-20T02:04:05;9.25;87.23
67862;DHT22;54665;51.462;6.698;2022-12-20T02:06:30;9.31;87.31
67862;DHT22;54665;51.462;6.698;2022-12-20T02:09:03;9.39;86.97
67862;DHT22;54665;51.462;6.698;2022-12-20T02:17:56;9.74;85.28
67862;DHT22;54665;51.462;6.698;2022-12-20T02:29:36;10.34;83.35
67862;DHT22;54665;51.462;6.698;2022-12-20T02:32:08;10.40;83.08
67862;DHT22;54665;51.462;6.698;2022-12-20T02:34:39;10.44;83.06
67862;DHT22;54665;51.462;6.698;2022-12-20T02:37:05;10.37;83.97
67862;DHT22;54665;51.462;6.698;2022-12-20T02:39:32;10.27;84.56
67862;DHT22;54665;51.462;6.698;2022-12-20T02:42:03;10.20;85.62
67862;DHT22;54665;51.462;6.698;2022-12-20T02:44:31;10.12;85.64
67862;DHT22;54665;51.462;6.698;2022-12-20T02:47:21;10.09;85.94
67862;DHT22;54665;51.462;6.698;2022-12-20T02:49:49;10.13;85.82
67862;DHT22;54665;51.462;6.698;2022-12-20T02:52:16;10.12;86.73
67862;DHT22;54665;51.462;6.698;2022-12-20T02:54:43;10.19;86.56
67862;DHT22;54665;51.462;6.698;2022-12-20T02:57:15;10.09;87.22
67862;DHT22;54665;51.462;6.698;2022-12-20T02:59:56;10.06;87.90
67862;DHT22;54665;51.462;6.698;2022-12-20T03:02:23;9.99;88.27
67862;DHT22;54665;51.462;6.698;2022-12-20T03:04:50;9.85;88.95
67862;DHT22;54665;51.462;6.698;2022-12-20T03:07:18;9.85;88.85
67862;DHT22;54665;51.462;6.698;2022-12-20T03:09:44;9.82;89.20
67862;DHT22;54665;51.462;6.698;2022-12-20T03:12:12;9.68;89.73
67862;DHT22;54665;51.462;6.698;2022-12-20T03:14:40;9.63;90.15
67862;DHT22;54665;51.462;6.698;2022-12-20T03:17:07;9.55;90.61
67862;DHT22;54665;51.462;6.698;2022-12-20T03:19:36;9.58;90.84
67862;DHT22;54665;51.462;6.698;2022-12-20T03:22:02;9.58;90.47
67862;DHT22;54665;51.462;6.698;2022-12-20T03:24:29;9.56;90.80
67862;DHT22;54665;51.462;6.698;2022-12-20T03:26:57;9.54;91.29
67862;DHT22;54665;51.462;6.698;2022-12-20T03:29:23;9.48;91.68
67862;DHT22;54665;51.462;6.698;2022-12-20T03:31:49;9.45;92.13
67862;DHT22;54665;51.462;6.698;2022-12-20T03:34:15;9.38;92.32
67862;DHT22;54665;51.462;6.698;2022-12-20T03:36:40;9.37;92.61
67862;DHT22;54665;51.462;6.698;2022-12-20T03:39:05;9.30;92.56
67862;DHT22;54665;51.462;6.698;2022-12-20T03:41:36;9.25;92.76
67862;DHT22;54665;51.462;6.698;2022-12-20T03:44:02;9.24;92.77
67862;DHT22;54665;51.462;6.698;2022-12-20T03:46:27;9.21;92.69
67862;DHT22;54665;51.462;6.698;2022-12-20T03:48:53;9.31;92.39
67862;DHT22;54665;51.462;6.698;2022-12-20T03:51:19;9.31;92.23
67862;DHT22;54665;51.462;6.698;2022-12-20T03:53:44;9.25;92.23
67862;DHT22;54665;51.462;6.698;2022-12-20T03:56:11;9.25;92.41
67862;DHT22;54665;51.462;6.698;2022-12-20T03:58:38;9.28;92.19
67862;DHT22;54665;51.462;6.698;2022-12-20T04:01:36;9.30;92.30
67862;DHT22;54665;51.462;6.698;2022-12-20T04:04:04;9.24;92.60
67862;DHT22;54665;51.462;6.698;2022-12-20T04:06:29;9.30;92.76
67862;DHT22;54665;51.462;6.698;2022-12-20T04:08:55;9.18;92.78
67862;DHT22;54665;51.462;6.698;2022-12-20T04:11:26;9.11;93.19
67862;DHT22;54665;51.462;6.698;2022-12-20T04:14:18;9.11;93.88
67862;DHT22;54665;51.462;6.698;2022-12-20T04:16:43;9.08;93.53
67862;DHT22;54665;51.462;6.698;2022-12-20T04:19:09;9.08;93.72
67862;DHT22;54665;51.462;6.698;2022-12-20T04:21:41;9.05;93.70
67862;DHT22;54665;51.462;6.698;2022-12-20T04:24:07;9.03;93.79
67862;DHT22;54665;51.462;6.698;2022-12-20T04:26:52;9.00;93.93
67862;DHT22;54665;51.462;6.698;2022-12-20T04:29:19;8.99;94.17
67862;DHT22;54665;51.462;6.698;2022-12-20T04:31:49;8.97;94.04
67862;DHT22;54665;51.462;6.698;2022-12-20T04:34:15;9.00;94.15
67862;DHT22;54665;51.462;6.698;2022-12-20T04:36:40;9.01;94.21
67862;DHT22;54665;51.462;6.698;2022-12-20T04:39:12;9.04;94.30
67862;DHT22;54665;51.462;6.698;2022-12-20T04:41:51;9.03;94.56
67862;DHT22;54665;51.462;6.698;2022-12-20T04:44:16;9.05;94.82
67862;DHT22;54665;51.462;6.698;2022-12-20T04:46:41;9.03;94.81
67862;DHT22;54665;51.462;6.698;2022-12-20T04:49:11;9.03;94.89
67862;DHT22;54665;51.462;6.698;2022-12-20T04:51:39;9.04;94.87
67862;DHT22;54665;51.462;6.698;2022-12-20T04:54:05;9.03;94.91
67862;DHT22;54665;51.462;6.698;2022-12-20T04:56:42;9.00;95.00
67862;DHT22;54665;51.462;6.698;2022-12-20T04:59:11;9.01;95.17
67862;DHT22;54665;51.462;6.698;2022-12-20T05:01:39;8.99;95.23
67862;DHT22;54665;51.462;6.698;2022-12-20T05:04:05;8.99;95.32
67862;DHT22;54665;51.462;6.698;2022-12-20T05:06:34;8.96;95.65
67862;DHT22;54665;51.462;6.698;2022-12-20T05:09:00;8.97;95.70
67862;DHT22;54665;51.462;6.698;2022-12-20T05:11:25;8.99;95.61
67862;DHT22;54665;51.462;6.698;2022-12-20T05:13:51;9.04;95.76
67862;DHT22;54665;51.462;6.698;2022-12-20T05:16:18;9.03;95.82
67862;DHT22;54665;51.462;6.698;2022-12-20T05:18:44;9.03;95.79
67862;DHT22;54665;51.462;6.698;2022-12-20T05:21:10;9.01;95.85
67862;DHT22;54665;51.462;6.698;2022-12-20T05:23:54;9.01;95.88
67862;DHT22;54665;51.462;6.698;2022-12-20T05:27:02;9.00;95.95
67862;DHT22;54665;51.462;6.698;2022-12-20T05:29:28;8.99;95.91
67862;DHT22;54665;51.462;6.698;2022-12-20T05:31:54;8.97;95.80
67862;DHT22;54665;51.462;6.698;2022-12-20T05:34:20;9.03;95.56
67862;DHT22;54665;51.462;6.698;2022-12-20T05:36:50;9.08;95.32
67862;DHT22;54665;51.462;6.698;2022-12-20T05:39:17;9.10;95.12
67862;DHT22;54665;51.462;6.698;2022-12-20T05:41:47;9.10;94.87
67862;DHT22;54665;51.462;6.698;2022-12-20T05:44:13;9.05;94.83
67862;DHT22;54665;51.462;6.698;2022-12-20T05:46:42;9.05;94.80
67862;DHT22;54665;51.462;6.698;2022-12-20T05:49:12;9.11;94.56
67862;DHT22;54665;51.462;6.698;2022-12-20T05:51:38;9.14;94.44
67862;DHT22;54665;51.462;6.698;2022-12-20T05:54:15;9.13;94.42
67862;DHT22;54665;51.462;6.698;2022-12-20T05:56:47;9.13;94.28
67862;DHT22;54665;51.462;6.698;2022-12-20T05:59:16;9.14;94.19
67862;DHT22;54665;51.462;6.698;2022-12-20T06:01:42;9.17;94.11
67862;DHT22;54665;51.462;6.698;2022-12-20T06:04:08;9.15;94.05
67862;DHT22;54665;51.462;6.698;2022-12-20T06:06:33;9.21;93.85
67862;DHT22;54665;51.462;6.698;2022-12-20T06:08:59;9.20;93.78
67862;DHT22;54665;51.462;6.698;2022-12-20T06:11:38;9.21;93.68
67862;DHT22;54665;51.462;6.698;2022-12-20T06:14:07;9.23;93.49
67862;DHT22;54665;51.462;6.698;2022-12-20T06:16:35;9.24;93.47
67862;DHT22;54665;51.462;6.698;2022-12-20T06:19:02;9.25;93.38
67862;DHT22;54665;51.462;6.698;2022-12-20T06:21:31;9.20;93.39
67862;DHT22;54665;51.462;6.698;2022-12-20T06:23:57;9.27;93.21
67862;DHT22;54665;51.462;6.698;2022-12-20T06:26:24;9.37;92.61
67862;DHT22;54665;51.462;6.698;2022-12-20T06:28:51;9.44;92.16
67862;DHT22;54665;51.462;6.698;2022-12-20T06:31:35;9.38;92.42
67862;DHT22;54665;51.462;6.698;2022-12-20T06:34:00;9.32;92.52
67862;DHT22;54665;51.462;6.698;2022-12-20T06:36:31;9.39;92.49
67862;DHT22;54665;51.462;6.698;2022-12-20T06:38:56;9.35;92.42
67862;DHT22;54665;51.462;6.698;2022-12-20T06:41:22;9.44;91.83
67862;DHT22;54665;51.462;6.698;2022-12-20T06:43:48;9.41;91.98
67862;DHT22;54665;51.462;6.698;2022-12-20T06:46:14;9.37;92.09
67862;DHT22;54665;51.462;6.698;2022-12-20T06:48:39;9.41;91.86
67862;DHT22;54665;51.462;6.698;2022-12-20T06:51:07;9.41;91.63
67862;DHT22;54665;51.462;6.698;2022-12-20T06:53:32;9.46;91.47
67862;DHT22;54665;51.462;6.698;2022-12-20T06:55:58;9.48;91.23
67862;DHT22;54665;51.462;6.698;2022-12-20T06:58:24;9.45;91.26
67862;DHT22;54665;51.462;6.698;2022-12-20T07:00:49;9.48;91.29
67862;DHT22;54665;51.462;6.698;2022-12-20T07:03:15;9.49;90.87
67862;DHT22;54665;51.462;6.698;2022-12-20T07:05:40;9.52;90.42
67862;DHT22;54665;51.462;6.698;2022-12-20T07:08:06;9.45;90.89
67862;DHT22;54665;51.462;6.698;2022-12-20T07:10:33;9.56;90.64
67862;DHT22;54665;51.462;6.698;2022-12-20T07:12:58;9.61;90.45
67862;DHT22;54665;51.462;6.698;2022-12-20T07:15:24;9.56;90.66
67862;DHT22;54665;51.462;6.698;2022-12-20T07:17:49;9.56;90.48
67862;DHT22;54665;51.462;6.698;2022-12-20T07:20:18;9.59;90.23
67862;DHT22;54665;51.462;6.698;2022-12-20T07:22:46;9.66;90.11
67862;DHT22;54665;51.462;6.698;2022-12-20T07:25:13;9.61;90.15
67862;DHT22;54665;51.462;6.698;2022-12-20T07:27:38;9.65;90.15
67862;DHT22;54665;51.462;6.698;2022-12-20T07:30:04;9.66;90.03
67862;DHT22;54665;51.462;6.698;2022-12-20T07:32:30;9.61;90.12
67862;DHT22;54665;51.462;6.698;2022-12-20T07:34:56;9.65;90.14
67862;DHT22;54665;51.462;6.698;2022-12-20T07:37:21;9.58;90.09
67862;DHT22;54665;51.462;6.698;2022-12-20T07:39:47;9.63;89.61
67862;DHT22;54665;51.462;6.698;2022-12-20T07:42:12;9.63;89.69
67862;DHT22;54665;51.462;6.698;2022-12-20T07:44:41;9.56;89.65
67862;DHT22;54665;51.462;6.698;2022-12-20T07:47:07;9.52;89.75
67862;DHT22;54665;51.462;6.698;2022-12-20T07:49:32;9.52;89.80
67862;DHT22;54665;51.462;6.698;2022-12-20T07:51:58;9.56;89.77
67862;DHT22;54665;51.462;6.698;2022-12-20T07:54:27;9.63;89.67
67862;DHT22;54665;51.462;6.698;2022-12-20T07:56:57;9.65;89.66
67862;DHT22;54665;51.462;6.698;2022-12-20T07:59:25;9.72;89.30
67862;DHT22;54665;51.462;6.698;2022-12-20T08:01:52;9.71;89.56
67862;DHT22;54665;51.462;6.698;2022-12-20T08:04:20;9.81;89.00
67862;DHT22;54665;51.462;6.698;2022-12-20T08:06:48;9.83;89.24
67862;DHT22;54665;51.462;6.698;2022-12-20T08:09:15;9.96;88.44
67862;DHT22;54665;51.462;6.698;2022-12-20T08:11:42;9.96;88.30
67862;DHT22;54665;51.462;6.698;2022-12-20T08:14:09;9.89;88.52
67862;DHT22;54665;51.462;6.698;2022-12-20T08:16:35;9.92;88.56
67862;DHT22;54665;51.462;6.698;2022-12-20T08:19:00;9.99;87.85
67862;DHT22;54665;51.462;6.698;2022-12-20T08:21:25;9.99;88.14
67862;DHT22;54665;51.462;6.698;2022-12-20T08:23:51;10.00;87.77
67862;DHT22;54665;51.462;6.698;2022-12-20T08:26:16;10.02;88.09
67862;DHT22;54665;51.462;6.698;2022-12-20T08:28:42;10.10;87.57
67862;DHT22;54665;51.462;6.698;2022-12-20T08:31:09;10.10;87.73
67862;DHT22;54665;51.462;6.698;2022-12-20T08:33:35;10.16;87.73
67862;DHT22;54665;51.462;6.698;2022-12-20T08:36:04;10.14;87.99
67862;DHT22;54665;51.462;6.698;2022-12-20T08:38:30;10.17;87.91
67862;DHT22;54665;51.462;6.698;2022-12-20T08:41:04;10.26;87.42
67862;DHT22;54665;51.462;6.698;2022-12-20T08:43:31;10.19;87.56
67862;DHT22;54665;51.462;6.698;2022-12-20T08:45:57;10.19;87.78
67862;DHT22;54665;51.462;6.698;2022-12-20T08:48:22;10.20;87.47
67862;DHT22;54665;51.462;6.698;2022-12-20T08:50:59;10.23;87.42
67862;DHT22;54665;51.462;6.698;2022-12-20T08:53:25;10.24;87.13
67862;DHT22;54665;51.462;6.698;2022-12-20T08:55:51;10.30;87.03
67862;DHT22;54665;51.462;6.698;2022-12-20T08:58:17;10.30;86.99
67862;DHT22;54665;51.462;6.698;2022-12-20T09:00:43;10.30;87.16
67862;DHT22;54665;51.462;6.698;2022-12-20T09:03:09;10.34;86.67
67862;DHT22;54665;51.462;6.698;2022-12-20T09:05:36;10.40;86.88
67862;DHT22;54665;51.462;6.698;2022-12-20T09:08:01;10.41;86.35
67862;DHT22;54665;51.462;6.698;2022-12-20T09:10:29;10.51;85.77
67862;DHT22;54665;51.462;6.698;2022-12-20T09:12:55;10.44;86.58
67862;DHT22;54665;51.462;6.698;2022-12-20T09:15:23;10.44;86.37
67862;DHT22;54665;51.462;6.698;2022-12-20T09:17:51;10.48;86.11
67862;DHT22;54665;51.462;6.698;2022-12-20T09:20:17;10.46;86.79
67862;DHT22;54665;51.462;6.698;2022-12-20T09:22:42;10.47;86.47
67862;DHT22;54665;51.462;6.698;2022-12-20T09:25:08;10.58;86.04
67862;DHT22;54665;51.462;6.698;2022-12-20T09:27:34;10.60;86.26
67862;DHT22;54665;51.462;6.698;2022-12-20T09:29:59;10.64;86.85
67862;DHT22;54665;51.462;6.698;2022-12-20T09:32:25;10.61;87.72
67862;DHT22;54665;51.462;6.698;2022-12-20T09:34:50;10.60;87.79
67862;DHT22;54665;51.462;6.698;2022-12-20T09:37:15;10.56;87.49
67862;DHT22;54665;51.462;6.698;2022-12-20T09:39:41;10.58;87.12
67862;DHT22;54665;51.462;6.698;2022-12-20T09:42:07;10.54;86.95
67862;DHT22;54665;51.462;6.698;2022-12-20T09:44:39;10.57;87.49
67862;DHT22;54665;51.462;6.698;2022-12-20T09:47:13;10.57;87.53
67862;DHT22;54665;51.462;6.698;2022-12-20T09:49:43;10.54;87.88
67862;DHT22;54665;51.462;6.698;2022-12-20T09:55:03;10.51;88.19
67862;DHT22;54665;51.462;6.698;2022-12-20T10:00:24;10.48;89.75
67862;DHT22;54665;51.462;6.698;2022-12-20T10:02:50;10.48;90.05
67862;DHT22;54665;51.462;6.698;2022-12-20T10:05:21;10.44;90.45
67862;DHT22;54665;51.462;6.698;2022-12-20T10:08:06;10.41;89.86
67862;DHT22;54665;51.462;6.698;2022-12-20T10:11:21;10.40;89.26
67862;DHT22;54665;51.462;6.698;2022-12-20T10:14:02;10.46;89.48
67862;DHT22;54665;51.462;6.698;2022-12-20T10:16:39;10.46;89.58
67862;DHT22;54665;51.462;6.698;2022-12-20T10:24:57;10.68;88.62
67862;DHT22;54665;51.462;6.698;2022-12-20T10:27:24;10.67;88.26
67862;DHT22;54665;51.462;6.698;2022-12-20T10:29:50;10.63;88.13
67862;DHT22;54665;51.462;6.698;2022-12-20T10:32:20;10.60;88.51
67862;DHT22;54665;51.462;6.698;2022-12-20T10:35:00;10.69;88.86
67862;DHT22;54665;51.462;6.698;2022-12-20T10:37:37;10.84;88.55
67862;DHT22;54665;51.462;6.698;2022-12-20T10:40:03;10.91;88.71
67862;DHT22;54665;51.462;6.698;2022-12-20T10:42:38;10.91;87.75
67862;DHT22;54665;51.462;6.698;2022-12-20T10:45:33;10.89;88.10
67862;DHT22;54665;51.462;6.698;2022-12-20T10:48:01;10.94;87.57
67862;DHT22;54665;51.462;6.698;2022-12-20T10:50:27;10.97;87.27
67862;DHT22;54665;51.462;6.698;2022-12-20T10:55:39;11.05;87.53
67862;DHT22;54665;51.462;6.698;2022-12-20T10:58:13;11.11;87.52
67862;DHT22;54665;51.462;6.698;2022-12-20T11:00:38;11.14;87.17
67862;DHT22;54665;51.462;6.698;2022-12-20T11:03:14;11.16;86.59
67862;DHT22;54665;51.462;6.698;2022-12-20T11:05:52;11.12;86.11
67862;DHT22;54665;51.462;6.698;2022-12-20T11:08:20;11.08;86.43
67862;DHT22;54665;51.462;6.698;2022-12-20T11:10:46;11.09;86.54
67862;DHT22;54665;51.462;6.698;2022-12-20T11:13:23;11.05;86.44
67862;DHT22;54665;51.462;6.698;2022-12-20T11:15:52;11.05;86.65
67862;DHT22;54665;51.462;6.698;2022-12-20T11:18:49;11.04;86.70
67862;DHT22;54665;51.462;6.698;2022-12-20T11:24:05;11.02;86.57
67862;DHT22;54665;51.462;6.698;2022-12-20T11:37:55;11.07;85.82
67862;DHT22;54665;51.462;6.698;2022-12-20T11:40:26;11.14;85.92
67862;DHT22;54665;51.462;6.698;2022-12-20T11:43:03;11.22;85.58
67862;DHT22;54665;51.462;6.698;2022-12-20T11:51:22;11.35;84.83
67862;DHT22;54665;51.462;6.698;2022-12-20T11:53:56;11.49;83.88
67862;DHT22;54665;51.462;6.698;2022-12-20T11:56:41;11.53;84.53
67862;DHT22;54665;51.462;6.698;2022-12-20T11:59:24;11.62;84.55
67862;DHT22;54665;51.462;6.698;2022-12-20T12:02:01;11.66;83.79
67862;DHT22;54665;51.462;6.698;2022-12-20T12:04:36;11.62;83.56
67862;DHT22;54665;51.462;6.698;2022-12-20T12:07:37;11.59;84.13
67862;DHT22;54665;51.462;6.698;2022-12-20T12:10:15;11.60;83.52
67862;DHT22;54665;51.462;6.698;2022-12-20T12:12:43;11.62;83.62
67862;DHT22;54665;51.462;6.698;2022-12-20T12:15:34;11.65;83.93
67862;DHT22;54665;51.462;6.698;2022-12-20T12:18:12;11.69;82.84
67862;DHT22;54665;51.462;6.698;2022-12-20T12:20:49;11.70;82.85
67862;DHT22;54665;51.462;6.698;2022-12-20T12:23:23;11.71;83.02
67862;DHT22;54665;51.462;6.698;2022-12-20T12:25:51;11.70;82.86
67862;DHT22;54665;51.462;6.698;2022-12-20T12:28:18;11.71;82.51
67862;DHT22;54665;51.462;6.698;2022-12-20T12:30:47;11.66;83.38
67862;DHT22;54665;51.462;6.698;2022-12-20T12:33:27;11.63;82.95
67862;DHT22;54665;51.462;6.698;2022-12-20T12:39:09;11.74;83.23
67862;DHT22;54665;51.462;6.698;2022-12-20T12:47:23;11.89;83.09
67862;DHT22;54665;51.462;6.698;2022-12-20T12:49:53;11.79;84.24
67862;DHT22;54665;51.462;6.698;2022-12-20T12:52:42;11.50;86.66
67862;DHT22;54665;51.462;6.698;2022-12-20T12:55:36;11.20;88.43
67862;DHT22;54665;51.462;6.698;2022-12-20T13:00:54;10.82;91.84
67862;DHT22;54665;51.462;6.698;2022-12-20T13:16:41;10.82;94.08
67862;DHT22;54665;51.462;6.698;2022-12-20T13:19:14;10.84;94.37
67862;DHT22;54665;51.462;6.698;2022-12-20T13:21:45;10.89;94.32
67862;DHT22;54665;51.462;6.698;2022-12-20T13:40:37;10.87;95.50
67862;DHT22;54665;51.462;6.698;2022-12-20T13:45:52;10.77;95.59
67862;DHT22;54665;51.462;6.698;2022-12-20T13:48:26;10.77;95.85
67862;DHT22;54665;51.462;6.698;2022-12-20T13:50:56;10.72;95.84
67862;DHT22;54665;51.462;6.698;2022-12-20T13:53:26;10.68;95.87
67862;DHT22;54665;51.462;6.698;2022-12-20T13:55:52;10.67;96.00
67862;DHT22;54665;51.462;6.698;2022-12-20T13:58:20;10.65;95.94
67862;DHT22;54665;51.462;6.698;2022-12-20T14:00:48;10.65;96.01
67862;DHT22;54665;51.462;6.698;2022-12-20T14:03:25;10.61;95.95
67862;DHT22;54665;51.462;6.698;2022-12-20T14:06:01;10.64;95.93
67862;DHT22;54665;51.462;6.698;2022-12-20T14:08:30;10.64;95.84
67862;DHT22;54665;51.462;6.698;2022-12-20T14:11:09;10.64;95.80
67862;DHT22;54665;51.462;6.698;2022-12-20T14:13:37;10.63;95.84
67862;DHT22;54665;51.462;6.698;2022-12-20T14:16:09;10.63;95.83
67862;DHT22;54665;51.462;6.698;2022-12-20T14:18:35;10.60;95.81
67862;DHT22;54665;51.462;6.698;2022-12-20T14:21:02;10.57;95.98
67862;DHT22;54665;51.462;6.698;2022-12-20T14:23:50;10.53;96.00
67862;DHT22;54665;51.462;6.698;2022-12-20T14:26:41;10.47;96.18
67862;DHT22;54665;51.462;6.698;2022-12-20T14:29:15;10.47;96.35
67862;DHT22;54665;51.462;6.698;2022-12-20T14:31:43;10.48;96.40
67862;DHT22;54665;51.462;6.698;2022-12-20T14:36:43;10.44;96.53
67862;DHT22;54665;51.462;6.698;2022-12-20T14:44:33;10.34;96.74
67862;DHT22;54665;51.462;6.698;2022-12-20T14:49:48;10.34;96.90
67862;DHT22;54665;51.462;6.698;2022-12-20T14:52:16;10.29;96.89
67862;DHT22;54665;51.462;6.698;2022-12-20T14:57:24;10.26;96.87
67862;DHT22;54665;51.462;6.698;2022-12-20T15:08:25;10.20;96.95
67862;DHT22;54665;51.462;6.698;2022-12-20T15:13:39;10.16;97.02
67862;DHT22;54665;51.462;6.698;2022-12-20T15:16:13;10.13;96.99
67862;DHT22;54665;51.462;6.698;2022-12-20T15:18:39;10.13;97.01
67862;DHT22;54665;51.462;6.698;2022-12-20T15:21:06;10.10;97.03
67862;DHT22;54665;51.462;6.698;2022-12-20T15:23:34;10.10;97.06
67862;DHT22;54665;51.462;6.698;2022-12-20T15:26:00;10.03;97.09
67862;DHT22;54665;51.462;6.698;2022-12-20T15:28:26;10.03;97.06
67862;DHT22;54665;51.462;6.698;2022-12-20T15:30:52;9.99;97.09
67862;DHT22;54665;51.462;6.698;2022-12-20T15:33:26;9.99;97.22
67862;DHT22;54665;51.462;6.698;2022-12-20T15:35:52;10.02;97.19
67862;DHT22;54665;51.462;6.698;2022-12-20T15:38:24;10.00;97.20
67862;DHT22;54665;51.462;6.698;2022-12-20T15:40:53;10.00;97.24
67862;DHT22;54665;51.462;6.698;2022-12-20T15:43:20;9.97;97.18
67862;DHT22;54665;51.462;6.698;2022-12-20T15:45:49;9.95;97.11
67862;DHT22;54665;51.462;6.698;2022-12-20T15:48:21;9.96;97.14
67862;DHT22;54665;51.462;6.698;2022-12-20T15:50:52;9.96;97.13
67862;DHT22;54665;51.462;6.698;2022-12-20T15:53:22;9.93;97.15
67862;DHT22;54665;51.462;6.698;2022-12-20T15:55:52;9.92;97.20
67862;DHT22;54665;51.462;6.698;2022-12-20T15:58:17;9.87;97.23
67862;DHT22;54665;51.462;6.698;2022-12-20T16:00:43;9.86;97.27
67862;DHT22;54665;51.462;6.698;2022-12-20T16:03:23;9.89;97.27
67862;DHT22;54665;51.462;6.698;2022-12-20T16:05:51;9.89;97.32
67862;DHT22;54665;51.462;6.698;2022-12-20T16:08:17;9.87;97.32
67862;DHT22;54665;51.462;6.698;2022-12-20T16:10:46;9.83;97.35
67862;DHT22;54665;51.462;6.698;2022-12-20T16:13:22;9.83;97.37
67862;DHT22;54665;51.462;6.698;2022-12-20T16:15:47;9.83;97.39
67862;DHT22;54665;51.462;6.698;2022-12-20T16:18:13;9.81;97.38
67862;DHT22;54665;51.462;6.698;2022-12-20T16:20:39;9.79;97.47
67862;DHT22;54665;51.462;6.698;2022-12-20T16:23:07;9.79;97.49
67862;DHT22;54665;51.462;6.698;2022-12-20T16:25:36;9.81;97.48
67862;DHT22;54665;51.462;6.698;2022-12-20T16:28:01;9.79;97.46
67862;DHT22;54665;51.462;6.698;2022-12-20T16:30:27;9.78;97.44
67862;DHT22;54665;51.462;6.698;2022-12-20T16:32:53;9.81;97.50
67862;DHT22;54665;51.462;6.698;2022-12-20T16:37:54;9.89;97.45
67862;DHT22;54665;51.462;6.698;2022-12-20T16:40:21;9.85;97.47
67862;DHT22;54665;51.462;6.698;2022-12-20T16:42:47;9.89;97.33
67862;DHT22;54665;51.462;6.698;2022-12-20T16:45:19;9.87;97.25
67862;DHT22;54665;51.462;6.698;2022-12-20T16:47:46;9.90;97.15
67862;DHT22;54665;51.462;6.698;2022-12-20T16:50:12;9.92;97.02
67862;DHT22;54665;51.462;6.698;2022-12-20T16:52:37;9.90;96.94
67862;DHT22;54665;51.462;6.698;2022-12-20T16:55:04;9.90;96.87
67862;DHT22;54665;51.462;6.698;2022-12-20T16:57:30;9.93;96.33
67862;DHT22;54665;51.462;6.698;2022-12-20T16:59:55;9.89;96.55
67862;DHT22;54665;51.462;6.698;2022-12-20T17:02:27;9.85;96.65
67862;DHT22;54665;51.462;6.698;2022-12-20T17:04:54;9.83;96.56
67862;DHT22;54665;51.462;6.698;2022-12-20T17:07:20;9.85;96.59
67862;DHT22;54665;51.462;6.698;2022-12-20T17:09:46;9.86;96.50
67862;DHT22;54665;51.462;6.698;2022-12-20T17:12:16;9.82;96.53
67862;DHT22;54665;51.462;6.698;2022-12-20T17:14:42;9.79;96.62
67862;DHT22;54665;51.462;6.698;2022-12-20T17:17:07;9.78;96.65
67862;DHT22;54665;51.462;6.698;2022-12-20T17:19:33;9.81;96.50
67862;DHT22;54665;51.462;6.698;2022-12-20T17:22:00;9.81;96.55
67862;DHT22;54665;51.462;6.698;2022-12-20T17:24:25;9.81;96.57
67862;DHT22;54665;51.462;6.698;2022-12-20T17:26:54;9.78;96.61
67862;DHT22;54665;51.462;6.698;2022-12-20T17:29:20;9.75;96.67
67862;DHT22;54665;51.462;6.698;2022-12-20T17:31:46;9.74;96.64
67862;DHT22;54665;51.462;6.698;2022-12-20T17:34:19;9.75;96.68
67862;DHT22;54665;51.462;6.698;2022-12-20T17:36:46;9.71;96.72
67862;DHT22;54665;51.462;6.698;2022-12-20T17:39:15;9.74;96.66
67862;DHT22;54665;51.462;6.698;2022-12-20T17:41:41;9.75;96.55
67862;DHT22;54665;51.462;6.698;2022-12-20T17:44:16;9.74;96.59
67862;DHT22;54665;51.462;6.698;2022-12-20T17:46:42;9.72;96.66
67862;DHT22;54665;51.462;6.698;2022-12-20T17:49:08;9.74;96.52
67862;DHT22;54665;51.462;6.698;2022-12-20T17:51:33;9.71;96.53
67862;DHT22;54665;51.462;6.698;2022-12-20T17:53:59;9.71;96.60